createdAt,value
2023-01-30T00:00:50.645Z,78.41
2023-01-30T00:02:52.218Z,78.19
2023-01-30T00:04:53.757Z,78.06
2023-01-30T00:06:55.438Z,78.17
2023-01-30T00:08:57.112Z,77.83
2023-01-30T00:11:04.462Z,78.25
2023-01-30T00:13:06.004Z,77.73
2023-01-30T00:15:09.220Z,78.23
2023-01-30T00:17:10.875Z,78.78
2023-01-30T00:19:12.691Z,78.45
2023-01-30T00:21:15.576Z,78.68
2023-01-30T00:23:17.294Z,78.27
2023-01-30T00:25:19.098Z,78.13
2023-01-30T00:27:22.234Z,78.64
2023-01-30T00:29:23.862Z,79.04
2023-01-30T00:31:25.525Z,78.96
2023-01-30T00:33:27.841Z,78.88
2023-01-30T00:35:29.944Z,78.61
2023-01-30T00:37:31.697Z,79.15
2023-01-30T00:39:33.272Z,79.12
2023-01-30T00:41:35.815Z,78.72
2023-01-30T00:43:38.905Z,79.20
2023-01-30T00:45:42.823Z,79.30
2023-01-30T00:47:44.518Z,79.92
2023-01-30T00:49:46.271Z,79.16
2023-01-30T00:51:47.858Z,79.42
2023-01-30T00:53:49.402Z,79.56
2023-01-30T00:55:51.757Z,79.13
2023-01-30T00:57:53.344Z,78.90
2023-01-30T00:59:56.297Z,79.04
2023-01-30T01:01:58.264Z,79.00
2023-01-30T01:03:59.993Z,78.99
2023-01-30T01:06:01.874Z,78.79
2023-01-30T01:08:04.133Z,79.13
2023-01-30T01:10:06.958Z,79.46
2023-01-30T01:12:09.281Z,78.89
2023-01-30T01:14:10.826Z,78.83
2023-01-30T01:16:13.908Z,78.60
2023-01-30T01:18:15.591Z,78.82
2023-01-30T01:20:18.534Z,79.03
2023-01-30T01:22:20.371Z,79.07
2023-01-30T01:24:22.086Z,79.23
2023-01-30T01:26:23.800Z,78.56
2023-01-30T01:28:25.584Z,79.20
2023-01-30T01:30:27.354Z,79.03
2023-01-30T01:32:30.368Z,78.67
2023-01-30T01:34:31.898Z,79.45
2023-01-30T01:36:52.786Z,78.81
2023-01-30T01:38:55.129Z,79.22
2023-01-30T01:40:56.861Z,78.80
2023-01-30T01:42:58.653Z,78.75
2023-01-30T01:45:05.190Z,79.63
2023-01-30T01:47:11.227Z,79.01
2023-01-30T01:49:20.995Z,78.85
2023-01-30T01:51:30.037Z,79.12
2023-01-30T01:53:36.276Z,79.58
2023-01-30T01:55:40.524Z,78.77
2023-01-30T01:57:47.083Z,78.93
2023-01-30T01:59:53.003Z,78.91
2023-01-30T02:01:58.589Z,79.52
2023-01-30T02:04:04.419Z,79.35
2023-01-30T02:06:09.144Z,79.41
2023-01-30T02:08:13.870Z,79.28
2023-01-30T02:10:19.826Z,79.55
2023-01-30T02:12:21.939Z,79.27
2023-01-30T02:14:24.603Z,78.92
2023-01-30T02:16:26.761Z,79.30
2023-01-30T02:18:30.973Z,78.54
2023-01-30T02:20:57.418Z,79.58
2023-01-30T02:23:31.898Z,78.94
2023-01-30T02:26:02.325Z,78.77
2023-01-30T02:28:30.269Z,78.61
2023-01-30T02:31:17.037Z,78.85
2023-01-30T02:33:28.610Z,79.62
2023-01-30T02:35:37.203Z,78.96
2023-01-30T02:37:51.119Z,79.54
2023-01-30T02:40:15.972Z,79.06
2023-01-30T02:42:27.391Z,79.70
2023-01-30T02:44:38.738Z,79.94
2023-01-30T02:46:51.016Z,79.84
2023-01-30T02:48:57.759Z,80.10
2023-01-30T02:51:05.622Z,79.45
2023-01-30T02:53:09.625Z,79.49
2023-01-30T02:55:19.210Z,79.45
2023-01-30T02:57:23.297Z,80.02
2023-01-30T02:59:30.625Z,80.42
2023-01-30T03:01:54.328Z,80.03
2023-01-30T03:04:11.236Z,80.33
2023-01-30T03:06:29.790Z,80.12
2023-01-30T03:08:40.062Z,80.96
2023-01-30T03:10:50.655Z,80.86
2023-01-30T03:12:59.299Z,81.26
2023-01-30T03:15:05.689Z,80.68
2023-01-30T03:17:11.257Z,80.92
2023-01-30T03:19:13.772Z,80.67
2023-01-30T03:21:16.152Z,81.38
2023-01-30T03:23:17.691Z,81.58
2023-01-30T03:25:21.851Z,81.63
2023-01-30T03:27:23.994Z,81.83
2023-01-30T03:29:25.566Z,81.25
2023-01-30T03:31:27.214Z,81.64
2023-01-30T03:33:30.267Z,81.41
2023-01-30T03:35:31.823Z,81.04
2023-01-30T03:37:33.573Z,81.38
2023-01-30T03:39:35.283Z,81.57
2023-01-30T03:41:36.835Z,81.68
2023-01-30T03:43:38.403Z,81.76
2023-01-30T03:45:40.148Z,81.88
2023-01-30T03:47:41.942Z,82.01
2023-01-30T03:49:44.919Z,82.58
2023-01-30T03:51:46.492Z,82.26
2023-01-30T03:53:48.277Z,82.22
2023-01-30T03:55:50.184Z,82.40
2023-01-30T03:57:55.597Z,82.43
2023-01-30T03:59:59.956Z,83.09
2023-01-30T04:02:01.559Z,82.39
2023-01-30T04:04:03.385Z,83.14
2023-01-30T04:06:06.684Z,82.86
2023-01-30T04:08:08.431Z,82.89
2023-01-30T04:10:11.193Z,82.24
2023-01-30T04:12:13.506Z,82.67
2023-01-30T04:14:15.178Z,82.60
2023-01-30T04:16:21.085Z,82.20
2023-01-30T04:18:22.933Z,81.94
2023-01-30T04:20:24.762Z,81.98
2023-01-30T04:22:27.900Z,81.96
2023-01-30T04:24:29.566Z,82.38
2023-01-30T04:26:31.331Z,81.82
2023-01-30T04:28:33.396Z,81.57
2023-01-30T04:30:35.033Z,81.66
2023-01-30T04:32:36.747Z,81.70
2023-01-30T04:34:38.300Z,81.99
2023-01-30T04:36:40.052Z,81.67
2023-01-30T04:38:43.183Z,81.86
2023-01-30T04:40:48.499Z,81.64
2023-01-30T04:42:50.090Z,81.91
2023-01-30T04:44:51.671Z,81.60
2023-01-30T04:46:54.222Z,81.92
2023-01-30T04:48:55.795Z,81.74
2023-01-30T04:50:57.805Z,82.53
2023-01-30T04:52:59.402Z,81.95
2023-01-30T04:55:02.379Z,81.85
2023-01-30T04:57:04.167Z,81.71
2023-01-30T04:59:06.185Z,82.37
2023-01-30T05:01:16.513Z,82.71
2023-01-30T05:03:18.773Z,82.07
2023-01-30T05:05:20.813Z,82.65
2023-01-30T05:07:22.479Z,82.45
2023-01-30T05:09:24.001Z,82.31
2023-01-30T05:11:29.342Z,82.10
2023-01-30T05:13:30.967Z,82.87
2023-01-30T05:15:33.350Z,83.09
2023-01-30T05:17:35.434Z,82.28
2023-01-30T05:19:37.000Z,83.02
2023-01-30T05:21:38.774Z,82.89
2023-01-30T05:23:40.472Z,82.75
2023-01-30T05:25:42.439Z,82.79
2023-01-30T05:27:45.570Z,82.94
2023-01-30T05:29:47.254Z,82.83
2023-01-30T05:31:48.828Z,82.72
2023-01-30T05:33:51.958Z,82.43
2023-01-30T05:35:53.527Z,82.79
2023-01-30T05:37:55.690Z,83.13
2023-01-30T05:39:57.284Z,82.05
2023-01-30T05:41:58.842Z,82.01
2023-01-30T05:44:01.995Z,82.67
2023-01-30T05:46:05.961Z,82.32
2023-01-30T05:48:07.509Z,82.39
2023-01-30T05:50:11.051Z,82.10
2023-01-30T05:52:12.705Z,82.20
2023-01-30T05:54:14.972Z,82.55
2023-01-30T05:56:17.318Z,82.66
2023-01-30T05:58:18.970Z,81.96
2023-01-30T06:00:22.565Z,82.65
2023-01-30T06:02:24.241Z,82.37
2023-01-30T06:04:25.866Z,82.25
2023-01-30T06:06:27.444Z,82.08
2023-01-30T06:08:29.563Z,82.08
2023-01-30T06:10:31.088Z,82.28
2023-01-30T06:12:32.914Z,82.42
2023-01-30T06:14:34.438Z,82.31
2023-01-30T06:16:37.597Z,81.61
2023-01-30T06:18:39.244Z,82.48
2023-01-30T06:20:40.891Z,81.64
2023-01-30T06:22:42.751Z,82.12
2023-01-30T06:24:44.327Z,81.50
2023-01-30T06:26:46.188Z,81.35
2023-01-30T06:28:47.860Z,81.70
2023-01-30T06:30:49.887Z,82.19
2023-01-30T06:32:53.045Z,81.94
2023-01-30T06:34:54.565Z,81.95
2023-01-30T06:36:56.360Z,82.08
2023-01-30T06:38:58.597Z,81.70
2023-01-30T06:41:00.181Z,81.67
2023-01-30T06:43:02.114Z,82.08
2023-01-30T06:45:04.441Z,81.53
2023-01-30T06:47:05.966Z,81.55
2023-01-30T06:49:09.188Z,81.64
2023-01-30T06:51:10.812Z,81.77
2023-01-30T06:53:12.401Z,81.39
2023-01-30T06:55:17.211Z,81.08
2023-01-30T06:57:19.172Z,81.43
2023-01-30T06:59:20.856Z,81.30
2023-01-30T07:01:22.456Z,81.22
2023-01-30T07:03:24.439Z,80.81
2023-01-30T07:05:27.862Z,80.89
2023-01-30T07:07:29.698Z,80.77
2023-01-30T07:09:31.226Z,80.63
2023-01-30T07:11:32.864Z,81.13
2023-01-30T07:13:34.655Z,80.61
2023-01-30T07:15:36.190Z,81.14
2023-01-30T07:17:40.338Z,80.83
2023-01-30T07:19:42.361Z,80.43
2023-01-30T07:21:45.407Z,81.00
2023-01-30T07:23:47.133Z,80.38
2023-01-30T07:25:48.737Z,80.64
2023-01-30T07:27:51.086Z,80.57
2023-01-30T07:29:53.413Z,80.12
2023-01-30T07:31:55.008Z,79.91
2023-01-30T07:33:57.023Z,80.38
2023-01-30T07:35:58.643Z,79.75
2023-01-30T07:38:01.760Z,79.31
2023-01-30T07:40:04.034Z,79.06
2023-01-30T07:42:06.351Z,79.22
2023-01-30T07:44:08.245Z,78.79
2023-01-30T07:46:10.059Z,78.77
2023-01-30T07:48:14.102Z,78.02
2023-01-30T07:50:16.941Z,78.15
2023-01-30T07:52:18.787Z,77.31
2023-01-30T07:54:21.904Z,77.50
2023-01-30T07:56:24.127Z,77.03
2023-01-30T07:58:25.676Z,76.79
2023-01-30T08:00:27.445Z,77.00
2023-01-30T08:02:29.015Z,76.79
2023-01-30T08:04:30.578Z,76.72
2023-01-30T08:06:32.159Z,77.33
2023-01-30T08:08:33.816Z,77.13
2023-01-30T08:10:36.840Z,77.31
2023-01-30T08:12:39.496Z,77.08
2023-01-30T08:14:41.070Z,76.73
2023-01-30T08:16:42.856Z,77.43
2023-01-30T08:18:44.867Z,76.95
2023-01-30T08:20:47.480Z,76.17
2023-01-30T08:22:49.044Z,76.24
2023-01-30T08:24:50.633Z,76.03
2023-01-30T08:26:53.588Z,76.14
2023-01-30T08:28:55.173Z,74.62
2023-01-30T08:30:57.830Z,74.88
2023-01-30T08:32:59.608Z,73.84
2023-01-30T08:35:01.131Z,73.86
2023-01-30T08:37:03.294Z,73.56
2023-01-30T08:39:05.685Z,73.66
2023-01-30T08:41:07.589Z,73.39
2023-01-30T08:43:10.929Z,73.11
2023-01-30T08:45:12.799Z,72.42
2023-01-30T08:47:14.680Z,72.28
2023-01-30T08:49:18.483Z,72.67
2023-01-30T08:51:20.234Z,72.44
2023-01-30T08:53:22.464Z,72.06
2023-01-30T08:55:24.013Z,72.00
2023-01-30T08:57:25.574Z,72.17
2023-01-30T08:59:28.551Z,72.04
2023-01-30T09:01:30.313Z,71.35
2023-01-30T09:03:32.127Z,70.51
2023-01-30T09:05:33.887Z,70.38
2023-01-30T09:07:35.869Z,69.98
2023-01-30T09:09:37.432Z,69.38
2023-01-30T09:11:38.943Z,69.61
2023-01-30T09:13:40.656Z,68.89
2023-01-30T09:15:44.291Z,69.47
2023-01-30T09:17:46.076Z,70.33
2023-01-30T09:19:48.003Z,70.39
2023-01-30T09:21:51.884Z,70.68
2023-01-30T09:23:55.979Z,70.91
2023-01-30T09:25:57.518Z,70.94
2023-01-30T09:27:59.212Z,72.04
2023-01-30T09:30:00.872Z,72.44
2023-01-30T09:32:04.093Z,72.37
2023-01-30T09:34:05.996Z,72.29
2023-01-30T09:36:08.701Z,73.17
2023-01-30T09:38:10.206Z,73.41
2023-01-30T09:40:16.081Z,73.50
2023-01-30T09:42:39.751Z,73.45
2023-01-30T09:45:02.223Z,72.62
2023-01-30T09:47:10.925Z,72.64
2023-01-30T09:49:27.878Z,73.16
2023-01-30T09:51:46.899Z,72.87
2023-01-30T09:54:12.531Z,72.78
2023-01-30T09:56:17.856Z,72.44
2023-01-30T09:58:22.308Z,72.67
2023-01-30T10:00:32.279Z,72.83
2023-01-30T10:02:50.313Z,72.78
2023-01-30T10:05:00.987Z,72.58
2023-01-30T10:07:16.486Z,72.98
2023-01-30T10:09:31.043Z,72.75
2023-01-30T10:11:51.878Z,72.37
2023-01-30T10:14:20.615Z,72.83
2023-01-30T10:16:27.376Z,72.11
2023-01-30T10:18:51.777Z,71.98
2023-01-30T10:21:11.539Z,72.20
2023-01-30T10:23:30.547Z,72.05
2023-01-30T10:25:37.715Z,72.45
2023-01-30T10:27:49.075Z,71.73
2023-01-30T10:29:54.968Z,72.01
2023-01-30T10:32:02.595Z,72.02
2023-01-30T10:34:12.437Z,72.65
2023-01-30T10:36:18.518Z,72.07
2023-01-30T10:38:27.758Z,72.47
2023-01-30T10:40:37.440Z,72.53
2023-01-30T10:42:46.940Z,73.04
2023-01-30T10:44:49.154Z,72.50
2023-01-30T10:47:47.062Z,72.72
2023-01-30T10:49:53.915Z,71.62
2023-01-30T10:52:02.888Z,72.10
2023-01-30T10:54:13.045Z,72.16
2023-01-30T10:56:20.794Z,71.91
2023-01-30T10:58:30.931Z,71.66
2023-01-30T11:00:39.375Z,70.68
2023-01-30T11:02:53.503Z,71.03
2023-01-30T11:05:03.543Z,71.28
2023-01-30T11:07:06.146Z,70.53
2023-01-30T11:09:09.049Z,71.19
2023-01-30T11:11:26.423Z,71.03
2023-01-30T11:13:31.348Z,70.69
2023-01-30T11:15:40.498Z,70.85
2023-01-30T11:17:45.313Z,70.96
2023-01-30T11:19:54.923Z,70.90
2023-01-30T11:22:05.881Z,70.98
2023-01-30T11:24:14.395Z,70.84
2023-01-30T11:26:21.472Z,70.70
2023-01-30T11:28:24.557Z,70.98
2023-01-30T11:30:29.076Z,70.72
2023-01-30T11:32:30.694Z,71.47
2023-01-30T11:34:32.793Z,70.83
2023-01-30T11:36:36.342Z,71.04
2023-01-30T11:38:57.301Z,71.06
2023-01-30T11:41:04.936Z,71.06
2023-01-30T11:43:12.387Z,71.32
2023-01-30T11:45:18.016Z,71.09
2023-01-30T11:47:24.304Z,71.08
2023-01-30T11:49:46.889Z,70.51
2023-01-30T11:51:54.220Z,71.38
2023-01-30T11:54:02.423Z,71.36
2023-01-30T11:56:10.113Z,71.48
2023-01-30T11:58:14.668Z,70.95
2023-01-30T12:00:20.812Z,70.81
2023-01-30T12:02:26.207Z,70.78
2023-01-30T12:04:28.737Z,70.09
2023-01-30T12:06:32.126Z,70.57
2023-01-30T12:08:42.369Z,70.63
2023-01-30T12:10:48.480Z,70.60
2023-01-30T12:12:52.621Z,70.46
2023-01-30T12:15:03.204Z,70.88
2023-01-30T12:17:14.048Z,70.83
2023-01-30T12:19:29.516Z,71.30
2023-01-30T12:21:39.497Z,71.88
2023-01-30T12:23:46.577Z,70.81
2023-01-30T12:25:58.540Z,71.47
2023-01-30T12:28:03.528Z,71.88
2023-01-30T12:30:20.529Z,70.80
2023-01-30T12:32:27.231Z,70.78
2023-01-30T12:34:28.888Z,70.16
2023-01-30T12:36:42.957Z,70.61
2023-01-30T12:38:56.370Z,69.88
2023-01-30T12:41:12.474Z,70.69
2023-01-30T12:43:29.908Z,70.24
2023-01-30T12:45:34.794Z,70.00
2023-01-30T12:47:55.250Z,70.30
2023-01-30T12:50:15.761Z,71.03
2023-01-30T12:52:38.942Z,70.94
2023-01-30T12:54:52.104Z,71.70
2023-01-30T12:57:09.187Z,72.23
2023-01-30T12:59:18.808Z,72.21
2023-01-30T13:01:27.671Z,71.53
2023-01-30T13:03:41.537Z,71.83
2023-01-30T13:05:51.354Z,71.37
2023-01-30T13:08:13.005Z,71.02
2023-01-30T13:10:24.664Z,71.12
2023-01-30T13:12:37.875Z,71.43
2023-01-30T13:14:48.461Z,70.72
2023-01-30T13:17:05.155Z,70.03
2023-01-30T13:19:15.160Z,70.74
2023-01-30T13:21:21.112Z,71.08
2023-01-30T13:23:33.039Z,70.64
2023-01-30T13:25:43.043Z,70.33
2023-01-30T13:27:56.469Z,69.95
2023-01-30T13:30:00.240Z,70.21
2023-01-30T13:32:05.723Z,69.44
2023-01-30T13:34:11.847Z,69.35
2023-01-30T13:36:17.859Z,69.42
2023-01-30T13:38:24.677Z,69.83
2023-01-30T13:40:30.821Z,69.14
2023-01-30T13:42:38.657Z,69.62
2023-01-30T13:44:44.779Z,70.45
2023-01-30T13:46:48.098Z,70.80
2023-01-30T13:49:01.226Z,71.66
2023-01-30T13:51:18.166Z,71.54
2023-01-30T13:53:28.968Z,71.37
2023-01-30T13:55:40.648Z,72.03
2023-01-30T13:57:48.164Z,71.17
2023-01-30T14:00:16.913Z,70.83
2023-01-30T14:02:20.955Z,70.40
2023-01-30T14:04:46.057Z,70.87
2023-01-30T14:06:48.066Z,70.85
2023-01-30T14:08:55.141Z,71.08
2023-01-30T14:10:57.913Z,71.20
2023-01-30T14:13:05.953Z,71.39
2023-01-30T14:15:27.220Z,71.47
2023-01-30T14:17:30.651Z,70.75
2023-01-30T14:19:39.675Z,70.49
2023-01-30T14:21:55.067Z,70.94
2023-01-30T14:24:00.835Z,70.08
2023-01-30T14:26:03.337Z,70.38
2023-01-30T14:28:44.034Z,70.33
2023-01-30T14:30:49.311Z,69.63
2023-01-30T14:32:55.786Z,69.60
2023-01-30T14:35:20.830Z,69.67
2023-01-30T14:37:45.383Z,69.87
2023-01-30T14:39:53.339Z,69.78
2023-01-30T14:42:19.395Z,69.54
2023-01-30T14:44:54.480Z,69.38
2023-01-30T14:46:58.549Z,70.00
2023-01-30T14:49:04.809Z,69.19
2023-01-30T14:51:19.831Z,70.20
2023-01-30T14:53:21.888Z,69.97
2023-01-30T14:55:26.787Z,69.38
2023-01-30T14:57:30.091Z,70.24
2023-01-30T14:59:35.612Z,69.03
2023-01-30T15:02:21.209Z,69.82
2023-01-30T15:04:23.240Z,69.03
2023-01-30T15:06:24.854Z,69.39
2023-01-30T15:08:27.309Z,69.24
2023-01-30T15:10:46.660Z,69.10
2023-01-30T15:13:28.032Z,68.93
2023-01-30T15:15:40.903Z,69.34
2023-01-30T15:18:06.921Z,69.26
2023-01-30T15:20:20.902Z,69.64
2023-01-30T15:22:31.849Z,68.94
2023-01-30T15:25:12.897Z,69.64
2023-01-30T15:27:23.154Z,69.81
2023-01-30T15:30:04.256Z,69.73
2023-01-30T15:32:22.809Z,69.56
2023-01-30T15:34:27.939Z,69.42
2023-01-30T15:36:34.034Z,69.70
2023-01-30T15:38:35.643Z,69.71
2023-01-30T15:40:40.538Z,69.44
2023-01-30T15:42:44.796Z,70.24
2023-01-30T15:44:58.300Z,70.18
2023-01-30T15:47:24.553Z,70.40
2023-01-30T15:49:46.171Z,69.63
2023-01-30T15:51:48.072Z,70.02
2023-01-30T15:53:49.903Z,70.01
2023-01-30T15:55:53.514Z,70.16
2023-01-30T15:57:59.404Z,70.70
2023-01-30T16:00:02.187Z,70.34
2023-01-30T16:02:08.297Z,70.32
2023-01-30T16:04:26.255Z,71.19
2023-01-30T16:06:34.665Z,71.04
2023-01-30T16:08:36.972Z,71.20
2023-01-30T16:10:45.407Z,70.84
2023-01-30T16:12:48.465Z,71.35
2023-01-30T16:14:50.461Z,71.07
2023-01-30T16:16:57.526Z,71.55
2023-01-30T16:19:02.142Z,70.86
2023-01-30T16:21:07.739Z,71.45
2023-01-30T16:23:21.045Z,71.34
2023-01-30T16:25:26.250Z,71.14
2023-01-30T16:27:31.911Z,70.69
2023-01-30T16:29:37.658Z,71.27
2023-01-30T16:31:41.107Z,70.97
2023-01-30T16:33:43.036Z,71.63
2023-01-30T16:35:45.918Z,71.01
2023-01-30T16:37:47.564Z,71.01
2023-01-30T16:40:04.369Z,70.66
2023-01-30T16:42:22.826Z,71.22
2023-01-30T16:44:27.498Z,70.62
2023-01-30T16:46:50.668Z,70.95
2023-01-30T16:48:52.230Z,71.17
2023-01-30T16:51:12.445Z,70.71
2023-01-30T16:53:15.387Z,71.32
2023-01-30T16:55:22.983Z,70.75
2023-01-30T16:57:32.153Z,70.79
2023-01-30T16:59:35.477Z,71.07
2023-01-30T17:01:40.411Z,70.65
2023-01-30T17:03:44.110Z,70.83
2023-01-30T17:05:48.539Z,70.81
2023-01-30T17:07:52.383Z,70.69
2023-01-30T17:09:54.065Z,70.16
2023-01-30T17:11:56.993Z,70.41
2023-01-30T17:14:18.679Z,70.61
2023-01-30T17:16:32.409Z,69.72
2023-01-30T17:18:34.005Z,69.74
2023-01-30T17:20:42.034Z,69.73
2023-01-30T17:22:47.069Z,69.49
2023-01-30T17:24:48.539Z,69.32
2023-01-30T17:26:52.675Z,69.23
2023-01-30T17:28:56.150Z,69.38
2023-01-30T17:30:57.859Z,68.57
2023-01-30T17:32:59.621Z,68.12
2023-01-30T17:35:01.202Z,67.99
2023-01-30T17:37:03.031Z,68.38
2023-01-30T17:39:11.471Z,68.15
2023-01-30T17:41:19.523Z,67.78
2023-01-30T17:43:21.139Z,67.32
2023-01-30T17:45:27.477Z,67.12
2023-01-30T17:47:29.290Z,67.00
2023-01-30T17:49:30.894Z,65.81
2023-01-30T17:51:33.134Z,66.30
2023-01-30T17:53:35.004Z,65.74
2023-01-30T17:55:36.622Z,65.73
2023-01-30T17:57:38.659Z,65.31
2023-01-30T17:59:40.165Z,64.80
2023-01-30T18:01:44.441Z,65.34
2023-01-30T18:03:46.200Z,64.77
2023-01-30T18:05:47.733Z,63.45
2023-01-30T18:07:49.460Z,63.08
2023-01-30T18:09:51.514Z,63.40
2023-01-30T18:11:53.318Z,62.59
2023-01-30T18:13:54.895Z,61.80
2023-01-30T18:15:58.712Z,62.45
2023-01-30T18:18:01.885Z,61.90
2023-01-30T18:20:03.551Z,61.51
2023-01-30T18:22:05.679Z,61.40
2023-01-30T18:24:08.197Z,61.31
2023-01-30T18:26:11.309Z,61.63
2023-01-30T18:28:12.886Z,61.85
2023-01-30T18:30:17.601Z,61.67
2023-01-30T18:32:19.607Z,61.19
2023-01-30T18:34:23.003Z,61.87
2023-01-30T18:36:24.954Z,62.02
2023-01-30T18:38:26.560Z,61.35
2023-01-30T18:40:28.167Z,61.43
2023-01-30T18:42:31.788Z,61.11
2023-01-30T18:44:33.613Z,61.66
2023-01-30T18:46:35.250Z,61.67
2023-01-30T18:48:37.103Z,61.78
2023-01-30T18:50:40.004Z,61.95
2023-01-30T18:52:41.548Z,61.98
2023-01-30T18:54:43.150Z,61.82
2023-01-30T18:56:44.872Z,60.28
2023-01-30T18:58:46.751Z,61.27
2023-01-30T19:00:48.369Z,60.88
2023-01-30T19:02:53.176Z,61.26
2023-01-30T19:04:54.936Z,60.76
2023-01-30T19:06:58.059Z,60.45
2023-01-30T19:09:00.022Z,59.93
2023-01-30T19:11:05.332Z,60.81
2023-01-30T19:13:07.462Z,61.14
2023-01-30T19:15:09.956Z,61.77
2023-01-30T19:17:11.599Z,61.62
2023-01-30T19:19:13.469Z,62.29
2023-01-30T19:21:15.190Z,62.24
2023-01-30T19:23:18.106Z,62.43
2023-01-30T19:25:19.986Z,62.12
2023-01-30T19:27:21.505Z,61.69
2023-01-30T19:29:23.025Z,61.88
2023-01-30T19:31:25.384Z,61.66
2023-01-30T19:33:26.961Z,60.78
2023-01-30T19:35:28.496Z,60.77
2023-01-30T19:37:30.327Z,60.82
2023-01-30T19:39:33.453Z,60.53
2023-01-30T19:41:36.313Z,60.79
2023-01-30T19:43:38.634Z,61.04
2023-01-30T19:45:41.210Z,60.57
2023-01-30T19:47:42.929Z,61.29
2023-01-30T19:49:44.556Z,60.09
2023-01-30T19:51:46.414Z,60.68
2023-01-30T19:53:52.058Z,61.48
2023-01-30T19:55:55.573Z,61.06
2023-01-30T19:57:57.134Z,61.10
2023-01-30T19:59:59.484Z,60.69
2023-01-30T20:02:01.817Z,60.87
2023-01-30T20:04:04.473Z,60.81
2023-01-30T20:06:08.108Z,61.33
2023-01-30T20:08:21.809Z,61.51
2023-01-30T20:10:31.222Z,61.47
2023-01-30T20:12:34.198Z,61.71
2023-01-30T20:14:35.842Z,62.40
2023-01-30T20:16:38.115Z,62.43
2023-01-30T20:18:40.956Z,62.24
2023-01-30T20:20:42.583Z,62.70
2023-01-30T20:22:44.267Z,62.76
2023-01-30T20:24:46.008Z,62.58
2023-01-30T20:26:48.632Z,62.79
2023-01-30T20:28:52.246Z,62.31
2023-01-30T20:30:53.904Z,62.50
2023-01-30T20:32:55.671Z,61.99
2023-01-30T20:34:57.169Z,62.70
2023-01-30T20:36:58.910Z,62.56
2023-01-30T20:39:01.698Z,62.26
2023-01-30T20:41:05.220Z,62.59
2023-01-30T20:43:07.145Z,63.20
2023-01-30T20:45:11.441Z,62.80
2023-01-30T20:47:13.087Z,62.64
2023-01-30T20:49:16.725Z,63.08
2023-01-30T20:51:19.985Z,63.25
2023-01-30T20:53:21.594Z,63.29
2023-01-30T20:55:23.164Z,62.96
2023-01-30T20:57:24.779Z,63.79
2023-01-30T20:59:28.518Z,63.33
2023-01-30T21:01:32.477Z,63.59
2023-01-30T21:03:34.184Z,63.18
2023-01-30T21:05:35.743Z,63.63
2023-01-30T21:07:37.299Z,63.87
2023-01-30T21:09:39.402Z,63.98
2023-01-30T21:11:41.154Z,63.36
2023-01-30T21:13:43.052Z,63.10
2023-01-30T21:15:44.648Z,63.19
2023-01-30T21:17:47.767Z,62.74
2023-01-30T21:19:49.544Z,62.86
2023-01-30T21:21:52.839Z,62.66
2023-01-30T21:23:57.110Z,63.03
2023-01-30T21:26:04.190Z,63.57
2023-01-30T21:28:05.935Z,63.42
2023-01-30T21:30:08.955Z,63.21
2023-01-30T21:32:10.587Z,62.33
2023-01-30T21:34:13.857Z,63.47
2023-01-30T21:36:17.216Z,62.98
2023-01-30T21:38:19.516Z,62.97
2023-01-30T21:40:21.031Z,62.96
2023-01-30T21:42:22.755Z,62.38
2023-01-30T21:44:26.369Z,63.54
2023-01-30T21:46:28.968Z,63.06
2023-01-30T21:48:30.707Z,63.11
2023-01-30T21:50:34.245Z,63.49
2023-01-30T21:52:35.778Z,63.67
2023-01-30T21:54:39.110Z,64.08
2023-01-30T21:56:41.296Z,63.69
2023-01-30T21:58:42.940Z,64.33
2023-01-30T22:00:44.612Z,63.77
2023-01-30T22:02:49.580Z,64.43
2023-01-30T22:04:51.285Z,64.02
2023-01-30T22:06:54.577Z,64.78
2023-01-30T22:08:56.817Z,64.78
2023-01-30T22:11:06.833Z,64.60
2023-01-30T22:13:08.736Z,64.77
2023-01-30T22:15:10.781Z,64.75
2023-01-30T22:17:12.648Z,64.46
2023-01-30T22:19:14.514Z,64.78
2023-01-30T22:21:18.676Z,64.38
2023-01-30T22:23:21.901Z,64.41
2023-01-30T22:25:24.261Z,64.80
2023-01-30T22:27:26.238Z,64.59
2023-01-30T22:29:28.188Z,64.25
2023-01-30T22:31:31.927Z,64.63
2023-01-30T22:33:34.575Z,64.60
2023-01-30T22:35:36.140Z,64.15
2023-01-30T22:37:38.394Z,64.51
2023-01-30T22:39:43.932Z,64.85
2023-01-30T22:41:45.480Z,63.92
2023-01-30T22:43:50.959Z,64.55
2023-01-30T22:45:52.685Z,63.77
2023-01-30T22:47:54.346Z,64.43
2023-01-30T22:49:55.927Z,64.35
2023-01-30T22:51:57.501Z,64.22
2023-01-30T22:54:01.005Z,64.06
2023-01-30T22:56:08.721Z,64.60
2023-01-30T22:58:10.515Z,64.19
2023-01-30T23:00:12.682Z,64.51
2023-01-30T23:02:14.511Z,64.92
2023-01-30T23:04:18.532Z,65.07
2023-01-30T23:06:20.628Z,65.24
2023-01-30T23:08:22.511Z,64.67
2023-01-30T23:10:24.586Z,65.70
2023-01-30T23:12:29.651Z,65.52
2023-01-30T23:14:33.633Z,65.82
2023-01-30T23:16:37.783Z,65.48
2023-01-30T23:18:39.582Z,65.19
2023-01-30T23:20:41.374Z,65.55
2023-01-30T23:22:43.077Z,65.84
2023-01-30T23:24:45.064Z,65.81
2023-01-30T23:26:49.407Z,66.21
2023-01-30T23:28:52.611Z,65.63
2023-01-30T23:30:54.269Z,65.98
2023-01-30T23:32:56.252Z,65.75
2023-01-30T23:34:58.016Z,65.77
2023-01-30T23:36:59.548Z,65.95
2023-01-30T23:39:01.330Z,66.31
2023-01-30T23:41:12.253Z,66.66
2023-01-30T23:43:14.742Z,65.83
2023-01-30T23:45:18.233Z,66.49
2023-01-30T23:47:19.880Z,66.13
2023-01-30T23:49:21.681Z,66.00
2023-01-30T23:51:25.391Z,66.15
2023-01-30T23:53:27.101Z,66.35
2023-01-30T23:55:28.753Z,66.14
2023-01-30T23:57:30.398Z,66.71
2023-01-30T23:59:32.262Z,66.09
